Time;durP1;ratioP1;P1;durP2;ratioP2;P2;SDS_P1;SDS_P2;PMS_P1;PMS_P2;Temp;Humidity;BMP_temperature;BMP_pressure;BME280_temperature;BME280_humidity;BME280_pressure;Samples;Min_cycle;Max_cycle;Signal;HPM_P1;HPM_P2
2023/04/20 00:01:51;;;;;;;4.75;1.95;;;;;;;;;;8269440;28;20156;-73
2023/04/20 00:05:52;;;;;;;2.90;1.60;;;;;;;;;;8252508;28;20081;-73
2023/04/20 00:09:52;;;;;;;3.58;1.83;;;;;;;;;;8259595;28;20122;-74
2023/04/20 00:13:52;;;;;;;3.17;1.87;;;;;;;;;;8257020;28;20018;-73
2023/04/20 00:17:53;;;;;;;2.05;1.85;;;;;;;;;;8258649;28;20281;-73
2023/04/20 00:21:53;;;;;;;1.80;1.70;;;;;;;;;;8258053;28;20022;-74
2023/04/20 00:25:54;;;;;;;2.58;2.00;;;;;;;;;;8259831;28;20072;-73
2023/04/20 00:29:54;;;;;;;3.75;2.08;;;;;;;;;;8255854;28;20010;-73
2023/04/20 00:33:54;;;;;;;5.88;2.03;;;;;;;;;;8261484;28;20037;-73
2023/04/20 00:37:54;;;;;;;2.15;1.90;;;;;;;;;;8256788;28;20251;-74
2023/04/20 00:42:02;;;;;;;3.28;1.90;;;;;;;;;;8257228;28;20086;-73
2023/04/20 00:46:02;;;;;;;2.25;2.05;;;;;;;;;;8258951;28;20102;-73
2023/04/20 00:50:03;;;;;;;1.98;1.77;;;;;;;;;;8251848;28;20053;-73
2023/04/20 00:54:03;;;;;;;2.95;1.70;;;;;;;;;;8253401;28;20129;-73
2023/04/20 00:58:04;;;;;;;2.67;1.80;;;;;;;;;;8267700;28;20017;-73
2023/04/20 01:02:04;;;;;;;3.45;2.10;;;;;;;;;;8257059;28;20326;-73
2023/04/20 01:06:05;;;;;;;2.92;1.90;;;;;;;;;;8252441;28;20034;-73
2023/04/20 01:10:06;;;;;;;4.28;2.40;;;;;;;;;;8254125;28;20844;-73
2023/04/20 01:14:06;;;;;;;4.10;2.00;;;;;;;;;;8255907;28;20671;-73
2023/04/20 01:18:08;;;;;;;2.78;1.90;;;;;;;;;;8261230;28;20026;-73
2023/04/20 01:22:12;;;;;;;4.05;2.17;;;;;;;;;;8260668;28;20018;-73
2023/04/20 01:26:13;;;;;;;7.13;2.25;;;;;;;;;;8277718;28;20022;-73
2023/04/20 01:30:14;;;;;;;4.05;2.00;;;;;;;;;;8256728;28;20038;-73
2023/04/20 01:34:16;;;;;;;3.03;2.28;;;;;;;;;;8258534;28;20033;-73
2023/04/20 01:38:17;;;;;;;3.15;1.98;;;;;;;;;;8260568;28;20052;-74
2023/04/20 01:42:18;;;;;;;3.40;1.98;;;;;;;;;;8260689;28;20033;-73
2023/04/20 01:46:18;;;;;;;2.85;1.70;;;;;;;;;;8258513;28;20041;-73
2023/04/20 01:50:18;;;;;;;5.95;2.28;;;;;;;;;;8260358;28;20038;-73
2023/04/20 01:54:18;;;;;;;6.53;2.45;;;;;;;;;;8259884;28;20144;-73
2023/04/20 01:58:18;;;;;;;2.60;2.10;;;;;;;;;;8261036;28;20030;-74
2023/04/20 02:02:18;;;;;;;4.15;2.22;;;;;;;;;;8258662;28;20053;-73
2023/04/20 02:06:18;;;;;;;3.63;2.22;;;;;;;;;;8259797;28;20149;-73
2023/04/20 02:10:19;;;;;;;2.15;1.90;;;;;;;;;;8259337;28;20693;-73
2023/04/20 02:14:19;;;;;;;2.55;2.13;;;;;;;;;;8257579;28;20053;-73
2023/04/20 02:18:20;;;;;;;3.93;2.30;;;;;;;;;;8259211;28;20037;-73
2023/04/20 02:22:20;;;;;;;3.20;2.20;;;;;;;;;;8258528;28;20295;-73
2023/04/20 02:26:20;;;;;;;3.50;2.50;;;;;;;;;;8257352;28;20726;-73
2023/04/20 02:30:21;;;;;;;6.65;2.10;;;;;;;;;;8262875;28;20694;-73
2023/04/20 02:34:21;;;;;;;3.38;1.95;;;;;;;;;;8258253;28;20018;-73
2023/04/20 02:38:21;;;;;;;3.42;2.47;;;;;;;;;;8258054;28;20026;-73
2023/04/20 02:42:21;;;;;;;3.38;1.90;;;;;;;;;;8259875;28;20483;-73
2023/04/20 02:46:22;;;;;;;4.28;2.20;;;;;;;;;;8259600;28;20060;-73
2023/04/20 02:50:22;;;;;;;3.58;1.92;;;;;;;;;;8259004;28;20068;-73
2023/04/20 02:54:22;;;;;;;2.67;2.30;;;;;;;;;;8259433;28;20553;-73
2023/04/20 02:58:22;;;;;;;2.42;2.00;;;;;;;;;;8256160;28;20288;-73
2023/04/20 03:02:22;;;;;;;2.78;2.20;;;;;;;;;;8256331;28;20041;-74
2023/04/20 03:06:23;;;;;;;4.43;2.30;;;;;;;;;;8260395;28;20032;-73
2023/04/20 03:10:23;;;;;;;5.97;2.10;;;;;;;;;;8260220;28;20024;-73
2023/04/20 03:14:23;;;;;;;4.10;2.42;;;;;;;;;;8264501;28;20041;-73
2023/04/20 03:18:23;;;;;;;3.50;2.20;;;;;;;;;;8258018;28;20813;-74
2023/04/20 03:22:23;;;;;;;5.32;2.20;;;;;;;;;;8258563;28;20029;-73
2023/04/20 03:26:24;;;;;;;5.70;2.60;;;;;;;;;;8260565;28;20034;-73
2023/04/20 03:30:24;;;;;;;2.88;2.20;;;;;;;;;;8255471;28;20402;-73
2023/04/20 03:34:25;;;;;;;4.22;2.42;;;;;;;;;;8264078;28;21080;-73
2023/04/20 03:38:25;;;;;;;3.05;2.55;;;;;;;;;;8258474;28;20030;-73
2023/04/20 03:42:25;;;;;;;3.45;2.47;;;;;;;;;;8259361;28;20025;-73
2023/04/20 03:46:26;;;;;;;3.05;2.47;;;;;;;;;;8260053;28;20065;-74
2023/04/20 03:50:26;;;;;;;3.80;2.40;;;;;;;;;;8261884;28;20034;-72
2023/04/20 03:54:26;;;;;;;4.80;2.40;;;;;;;;;;8257637;28;21150;-73
2023/04/20 03:58:26;;;;;;;3.13;2.30;;;;;;;;;;8259298;28;20143;-73
2023/04/20 04:02:27;;;;;;;3.75;2.83;;;;;;;;;;8266302;28;20042;-73
2023/04/20 04:06:27;;;;;;;6.18;2.67;;;;;;;;;;8262410;28;20656;-73
2023/04/20 04:10:27;;;;;;;3.72;2.40;;;;;;;;;;8268361;28;20024;-73
2023/04/20 04:14:28;;;;;;;4.35;2.92;;;;;;;;;;8265611;28;20096;-73
2023/04/20 04:18:31;;;;;;;3.95;2.58;;;;;;;;;;8290778;28;20045;-73
2023/04/20 04:22:31;;;;;;;6.97;2.90;;;;;;;;;;8292337;28;20014;-73
2023/04/20 04:26:32;;;;;;;8.00;2.80;;;;;;;;;;8292206;28;20017;-73
2023/04/20 04:30:32;;;;;;;5.20;2.50;;;;;;;;;;8288647;28;20355;-73
2023/04/20 04:34:33;;;;;;;6.40;2.45;;;;;;;;;;8264192;28;20014;-73
2023/04/20 04:38:33;;;;;;;4.03;2.63;;;;;;;;;;8263924;28;20143;-73
2023/04/20 04:42:34;;;;;;;4.93;2.60;;;;;;;;;;8265986;28;20026;-73
2023/04/20 04:46:35;;;;;;;7.57;3.28;;;;;;;;;;8269405;28;20041;-73
2023/04/20 04:50:35;;;;;;;6.72;3.00;;;;;;;;;;8261525;28;20022;-73
2023/04/20 04:54:35;;;;;;;3.55;2.85;;;;;;;;;;8269557;28;20026;-72
2023/04/20 04:58:36;;;;;;;3.45;2.67;;;;;;;;;;8316121;28;20029;-75
2023/04/20 05:02:36;;;;;;;5.45;3.22;;;;;;;;;;8298215;28;20042;-75
2023/04/20 05:06:36;;;;;;;4.15;2.95;;;;;;;;;;8300981;28;20080;-74
2023/04/20 05:10:36;;;;;;;6.13;3.00;;;;;;;;;;8309948;28;20014;-74
2023/04/20 05:14:36;;;;;;;4.13;3.30;;;;;;;;;;8309734;28;20287;-74
2023/04/20 05:18:36;;;;;;;6.75;3.13;;;;;;;;;;8307126;28;20435;-74
2023/04/20 05:22:37;;;;;;;4.28;3.30;;;;;;;;;;8306292;28;20029;-74
2023/04/20 05:26:37;;;;;;;6.38;3.25;;;;;;;;;;8315693;28;20049;-74
2023/04/20 05:30:37;;;;;;;4.85;3.47;;;;;;;;;;8300947;28;20360;-74
2023/04/20 05:34:37;;;;;;;5.88;3.47;;;;;;;;;;8299081;28;20022;-74
2023/04/20 05:38:38;;;;;;;6.20;3.50;;;;;;;;;;8301517;28;20475;-74
2023/04/20 05:42:38;;;;;;;4.40;3.13;;;;;;;;;;8301953;28;20113;-75
2023/04/20 05:46:38;;;;;;;5.15;3.15;;;;;;;;;;8302897;28;20038;-74
2023/04/20 05:50:38;;;;;;;4.43;3.65;;;;;;;;;;8295631;28;20030;-74
2023/04/20 05:54:39;;;;;;;3.38;3.08;;;;;;;;;;8291154;28;20033;-74
2023/04/20 05:58:39;;;;;;;3.75;3.30;;;;;;;;;;8300306;28;20350;-73
2023/04/20 06:02:40;;;;;;;4.72;3.15;;;;;;;;;;8294224;28;20680;-72
2023/04/20 06:06:40;;;;;;;5.97;4.00;;;;;;;;;;8293739;28;20037;-73
2023/04/20 06:10:40;;;;;;;4.72;3.55;;;;;;;;;;8294129;28;20102;-73
2023/04/20 06:14:41;;;;;;;4.65;3.40;;;;;;;;;;8294427;28;20021;-73
2023/04/20 06:18:41;;;;;;;5.05;3.40;;;;;;;;;;8291607;28;20041;-73
2023/04/20 06:22:43;;;;;;;3.42;3.13;;;;;;;;;;8298605;28;20022;-73
2023/04/20 06:26:43;;;;;;;4.72;3.33;;;;;;;;;;8301823;28;20033;-73
2023/04/20 06:30:43;;;;;;;7.70;3.50;;;;;;;;;;8301839;28;20034;-73
2023/04/20 06:34:44;;;;;;;5.38;3.55;;;;;;;;;;8307588;28;20022;-73
2023/04/20 06:38:44;;;;;;;4.78;3.53;;;;;;;;;;8293748;28;20605;-73
2023/04/20 06:42:44;;;;;;;5.38;3.85;;;;;;;;;;8302201;28;20014;-74
2023/04/20 06:46:44;;;;;;;4.32;3.28;;;;;;;;;;8308827;28;20050;-73
2023/04/20 06:50:48;;;;;;;3.20;2.90;;;;;;;;;;8308875;28;20032;-74
2023/04/20 06:54:49;;;;;;;4.28;3.30;;;;;;;;;;8299320;28;20025;-75
2023/04/20 06:58:49;;;;;;;5.97;3.75;;;;;;;;;;8295352;28;20022;-73
2023/04/20 07:02:49;;;;;;;5.97;3.25;;;;;;;;;;8308008;28;20088;-74
2023/04/20 07:06:50;;;;;;;5.95;3.13;;;;;;;;;;8283324;28;20025;-79
2023/04/20 07:10:50;;;;;;;3.97;3.58;;;;;;;;;;8261292;28;20025;-79
2023/04/20 07:14:50;;;;;;;5.05;3.58;;;;;;;;;;8264705;28;20029;-79
2023/04/20 07:18:51;;;;;;;5.80;3.88;;;;;;;;;;8296436;28;20125;-78
2023/04/20 07:22:51;;;;;;;3.90;3.50;;;;;;;;;;8298347;28;20048;-78
2023/04/20 07:26:51;;;;;;;6.00;3.75;;;;;;;;;;8300594;28;20057;-79
2023/04/20 07:30:51;;;;;;;5.88;3.90;;;;;;;;;;8292814;28;20040;-79
2023/04/20 07:34:52;;;;;;;4.22;3.83;;;;;;;;;;8297380;28;20033;-78
2023/04/20 07:38:52;;;;;;;5.13;3.80;;;;;;;;;;8286224;28;20018;-72
2023/04/20 07:42:52;;;;;;;4.95;4.25;;;;;;;;;;8285131;28;20073;-73
2023/04/20 07:46:53;;;;;;;6.60;3.92;;;;;;;;;;8319992;28;20072;-74
2023/04/20 07:50:54;;;;;;;4.47;3.85;;;;;;;;;;8339029;28;20025;-74
2023/04/20 07:54:56;;;;;;;6.70;4.00;;;;;;;;;;8317081;28;20021;-74
2023/04/20 07:58:56;;;;;;;5.60;4.15;;;;;;;;;;8344353;28;20117;-74
2023/04/20 08:02:57;;;;;;;4.13;3.72;;;;;;;;;;8316218;28;20498;-78
2023/04/20 08:06:57;;;;;;;6.78;3.63;;;;;;;;;;8289024;28;20040;-81
2023/04/20 08:10:57;;;;;;;6.38;4.03;;;;;;;;;;8289480;28;20048;-72
2023/04/20 08:15:00;;;;;;;5.75;4.22;;;;;;;;;;8277377;28;20063;-72
2023/04/20 08:19:02;;;;;;;8.55;4.30;;;;;;;;;;8284064;28;20626;-71
2023/04/20 08:23:02;;;;;;;6.82;3.78;;;;;;;;;;8276606;28;20040;-71
2023/04/20 08:27:03;;;;;;;4.53;3.70;;;;;;;;;;8280350;28;20018;-71
2023/04/20 08:31:03;;;;;;;4.85;3.15;;;;;;;;;;8285056;28;20084;-71
2023/04/20 08:35:03;;;;;;;4.85;3.40;;;;;;;;;;8285372;28;20206;-71
2023/04/20 08:39:06;;;;;;;6.43;3.53;;;;;;;;;;8305115;28;20576;-73
2023/04/20 08:43:06;;;;;;;5.95;3.58;;;;;;;;;;8317254;28;20025;-73
2023/04/20 08:47:08;;;;;;;4.90;3.92;;;;;;;;;;8312262;28;20052;-73
2023/04/20 08:51:08;;;;;;;4.45;3.97;;;;;;;;;;8298217;28;20388;-73
2023/04/20 08:55:09;;;;;;;6.90;3.78;;;;;;;;;;8299954;28;21014;-72
2023/04/20 08:59:10;;;;;;;6.07;4.03;;;;;;;;;;8303441;28;20036;-74
2023/04/20 09:03:10;;;;;;;6.88;3.60;;;;;;;;;;8310295;28;20036;-73
2023/04/20 09:07:17;;;;;;;5.55;3.85;;;;;;;;;;8306093;28;20044;-74
2023/04/20 09:11:21;;;;;;;5.30;4.18;;;;;;;;;;8295079;28;20033;-73
2023/04/20 09:15:21;;;;;;;;;;;;;;;;;;8297268;28;20051;-71
2023/04/20 09:19:23;;;;;;;4.15;3.50;;;;;;;;;;8282715;28;19938;-73
2023/04/20 09:23:23;;;;;;;4.70;3.28;;;;;;;;;;8286882;28;20031;-71
2023/04/20 09:27:25;;;;;;;6.30;3.60;;;;;;;;;;8307822;28;20064;-74
2023/04/20 09:31:25;;;;;;;5.50;3.80;;;;;;;;;;8316744;28;20072;-74
2023/04/20 09:35:25;;;;;;;4.83;3.50;;;;;;;;;;8316152;28;20037;-74
2023/04/20 09:39:25;;;;;;;6.30;3.60;;;;;;;;;;8318926;28;20284;-74
2023/04/20 09:43:27;;;;;;;5.37;3.70;;;;;;;;;;8317491;28;20792;-74
2023/04/20 09:47:28;;;;;;;4.85;4.03;;;;;;;;;;8314009;28;20312;-74
2023/04/20 09:51:30;;;;;;;7.13;4.28;;;;;;;;;;8313819;28;20029;-74
2023/04/20 09:55:31;;;;;;;4.82;3.78;;;;;;;;;;8312256;28;20027;-75
2023/04/20 09:59:32;;;;;;;6.07;4.30;;;;;;;;;;8315866;28;20021;-75
2023/04/20 10:03:32;;;;;;;5.68;4.00;;;;;;;;;;8320880;28;20029;-75
2023/04/20 10:07:34;;;;;;;7.85;4.15;;;;;;;;;;8324618;28;20080;-75
2023/04/20 10:11:35;;;;;;;5.22;3.83;;;;;;;;;;8325530;28;20018;-76
2023/04/20 10:15:36;;;;;;;6.43;4.20;;;;;;;;;;8318930;28;20041;-75
2023/04/20 10:19:41;;;;;;;6.32;3.85;;;;;;;;;;8322178;28;20072;-76
2023/04/20 10:23:51;;;;;;;4.88;4.00;;;;;;;;;;8316144;28;20036;-76
2023/04/20 10:27:52;;;;;;;6.70;3.47;;;;;;;;;;8315562;28;20104;-75
2023/04/20 10:31:53;;;;;;;5.95;4.30;;;;;;;;;;8299633;28;20034;-76
2023/04/20 10:35:55;;;;;;;5.60;4.10;;;;;;;;;;8281142;28;20041;-76
2023/04/20 10:39:56;;;;;;;6.47;4.18;;;;;;;;;;8278477;28;20880;-75
2023/04/20 10:44:06;;;;;;;5.13;4.03;;;;;;;;;;8277454;28;20564;-75
2023/04/20 10:48:07;;;;;;;5.63;4.13;;;;;;;;;;8287467;28;20478;-75
2023/04/20 10:52:07;;;;;;;4.28;3.88;;;;;;;;;;8288049;28;20032;-76
2023/04/20 10:56:07;;;;;;;5.50;4.25;;;;;;;;;;8272706;28;20215;-75
2023/04/20 11:00:19;;;;;;;5.85;4.00;;;;;;;;;;8263181;28;20335;-76
2023/04/20 11:04:28;;;;;;;4.32;3.92;;;;;;;;;;8267340;28;20124;-76
2023/04/20 11:08:34;;;;;;;6.78;4.05;;;;;;;;;;8269332;28;20053;-76
2023/04/20 11:12:38;;;;;;;4.70;4.30;;;;;;;;;;8280550;28;20446;-73
2023/04/20 11:16:38;;;;;;;6.00;4.25;;;;;;;;;;8254189;28;20168;-73
2023/04/20 11:20:51;;;;;;;5.87;4.03;;;;;;;;;;8251565;28;20058;-77
2023/04/20 11:25:01;;;;;;;4.22;3.83;;;;;;;;;;8264142;28;20303;-76
2023/04/20 11:29:02;;;;;;;6.95;4.57;;;;;;;;;;8257449;28;20565;-76
2023/04/20 11:33:02;;;;;;;5.65;4.10;;;;;;;;;;8271350;28;20026;-76
2023/04/20 11:37:03;;;;;;;4.63;4.20;;;;;;;;;;8276119;28;20111;-76
2023/04/20 11:41:06;;;;;;;5.63;4.07;;;;;;;;;;8284026;28;20128;-76
2023/04/20 11:45:07;;;;;;;4.75;3.80;;;;;;;;;;8266662;28;20034;-76
2023/04/20 11:49:07;;;;;;;5.38;4.20;;;;;;;;;;8266827;28;20045;-76
2023/04/20 11:53:09;;;;;;;4.57;4.15;;;;;;;;;;8275320;28;20029;-76
2023/04/20 11:57:09;;;;;;;3.58;2.92;;;;;;;;;;8278996;28;20144;-75
2023/04/20 12:01:09;;;;;;;5.85;2.92;;;;;;;;;;8261403;28;20040;-73
2023/04/20 12:05:10;;;;;;;2.80;2.60;;;;;;;;;;8255586;28;20036;-73
2023/04/20 12:09:12;;;;;;;2.60;2.40;;;;;;;;;;8293268;28;20268;-73
2023/04/20 12:13:12;;;;;;;2.30;2.10;;;;;;;;;;8289847;28;20072;-73
2023/04/20 12:17:13;;;;;;;1.90;1.80;;;;;;;;;;8278846;28;20034;-73
2023/04/20 12:21:14;;;;;;;1.73;1.63;;;;;;;;;;8304277;28;20060;-74
2023/04/20 12:25:15;;;;;;;2.83;2.15;;;;;;;;;;8310797;28;20032;-73
2023/04/20 12:29:15;;;;;;;3.90;2.80;;;;;;;;;;8290754;28;20022;-73
2023/04/20 12:33:16;;;;;;;3.97;3.03;;;;;;;;;;8311096;28;20048;-73
2023/04/20 12:37:16;;;;;;;4.60;4.03;;;;;;;;;;8281450;28;20092;-72
2023/04/20 12:41:16;;;;;;;5.88;4.03;;;;;;;;;;8284713;28;20160;-73
2023/04/20 12:45:17;;;;;;;4.13;3.72;;;;;;;;;;8276617;28;20030;-74
2023/04/20 12:49:17;;;;;;;4.50;4.10;;;;;;;;;;8270698;28;20029;-73
2023/04/20 12:53:18;;;;;;;4.10;3.70;;;;;;;;;;8277339;28;20034;-75
2023/04/20 12:57:18;;;;;;;6.43;4.10;;;;;;;;;;8268656;28;20566;-75
2023/04/20 13:01:25;;;;;;;4.93;4.20;;;;;;;;;;8270719;28;20054;-74
2023/04/20 13:05:33;;;;;;;6.63;4.10;;;;;;;;;;8290199;28;20675;-75
2023/04/20 13:09:33;;;;;;;6.47;3.92;;;;;;;;;;8285986;28;20947;-74
2023/04/20 13:13:34;;;;;;;3.70;3.40;;;;;;;;;;8300598;28;20017;-75
2023/04/20 13:17:34;;;;;;;3.55;3.25;;;;;;;;;;8303625;28;20036;-74
2023/04/20 13:21:48;;;;;;;5.15;3.47;;;;;;;;;;8315472;28;20033;-73
2023/04/20 13:25:48;;;;;;;4.53;3.47;;;;;;;;;;8316542;28;20129;-75
2023/04/20 13:29:48;;;;;;;4.30;3.25;;;;;;;;;;8309787;28;20038;-75
2023/04/20 13:33:53;;;;;;;6.78;3.53;;;;;;;;;;8291827;28;20046;-75
2023/04/20 13:37:53;;;;;;;3.45;3.15;;;;;;;;;;8315409;28;20029;-75
2023/04/20 13:41:53;;;;;;;4.15;3.75;;;;;;;;;;8291291;28;20030;-74
2023/04/20 13:45:54;;;;;;;3.78;3.25;;;;;;;;;;8311061;28;20301;-74
2023/04/20 13:49:55;;;;;;;5.43;3.20;;;;;;;;;;8289821;28;20056;-75
2023/04/20 13:53:55;;;;;;;4.38;3.10;;;;;;;;;;8302053;28;20041;-74
2023/04/20 13:57:56;;;;;;;3.53;3.03;;;;;;;;;;8301093;28;20014;-72
2023/04/20 14:01:56;;;;;;;3.60;3.30;;;;;;;;;;8294401;28;20042;-73
2023/04/20 14:05:56;;;;;;;5.72;3.10;;;;;;;;;;8274108;28;20025;-73
2023/04/20 14:09:58;;;;;;;2.97;2.78;;;;;;;;;;8296163;28;20029;-74
2023/04/20 14:13:58;;;;;;;5.32;2.60;;;;;;;;;;8274714;28;20021;-74
2023/04/20 14:18:01;;;;;;;4.25;3.10;;;;;;;;;;8268325;28;20982;-74
2023/04/20 14:22:01;;;;;;;3.00;2.70;;;;;;;;;;8278173;28;20023;-74
2023/04/20 14:26:02;;;;;;;3.70;3.20;;;;;;;;;;8287143;28;20018;-73
2023/04/20 14:30:04;;;;;;;3.40;3.10;;;;;;;;;;8289587;28;20650;-74
2023/04/20 14:34:08;;;;;;;3.20;2.88;;;;;;;;;;8308885;28;20030;-75
2023/04/20 14:38:09;;;;;;;4.95;2.75;;;;;;;;;;8317672;28;20026;-75
2023/04/20 14:42:10;;;;;;;3.45;2.88;;;;;;;;;;8310951;28;20022;-74
2023/04/20 14:46:11;;;;;;;6.95;3.00;;;;;;;;;;8321566;28;20046;-75
2023/04/20 14:50:11;;;;;;;3.25;2.85;;;;;;;;;;8312072;28;20036;-74
2023/04/20 14:54:13;;;;;;;4.63;3.20;;;;;;;;;;8304344;28;20022;-75
2023/04/20 14:58:17;;;;;;;6.10;3.45;;;;;;;;;;8305735;28;20168;-75
2023/04/20 15:02:17;;;;;;;;;;;;;;;;;;8294816;28;20042;-74
2023/04/20 15:06:17;;;;;;;5.35;3.60;;;;;;;;;;8305507;28;19988;-74
2023/04/20 15:10:18;;;;;;;6.20;3.97;;;;;;;;;;8303119;28;20034;-74
2023/04/20 15:14:19;;;;;;;4.18;3.83;;;;;;;;;;8306159;28;20052;-74
2023/04/20 15:18:19;;;;;;;9.70;4.20;;;;;;;;;;8307673;28;20068;-73
2023/04/20 15:22:19;;;;;;;3.67;3.30;;;;;;;;;;8301536;28;20032;-74
2023/04/20 15:26:19;;;;;;;5.28;3.47;;;;;;;;;;8301522;28;20033;-74
2023/04/20 15:30:20;;;;;;;5.47;3.05;;;;;;;;;;8298215;28;20049;-74
2023/04/20 15:34:20;;;;;;;3.38;2.90;;;;;;;;;;8306652;28;20026;-73
2023/04/20 15:38:21;;;;;;;5.60;3.20;;;;;;;;;;8309814;28;20241;-74
2023/04/20 15:42:21;;;;;;;7.07;3.47;;;;;;;;;;8285903;28;20032;-74
2023/04/20 15:46:24;;;;;;;4.68;3.40;;;;;;;;;;8288547;28;20053;-73
2023/04/20 15:50:24;;;;;;;5.97;3.22;;;;;;;;;;8295149;28;20025;-74
2023/04/20 15:54:29;;;;;;;3.75;3.00;;;;;;;;;;8303586;28;20041;-74
2023/04/20 15:58:29;;;;;;;4.95;3.00;;;;;;;;;;8331229;28;20077;-74
2023/04/20 16:02:30;;;;;;;4.00;2.83;;;;;;;;;;8312757;28;20444;-74
2023/04/20 16:06:31;;;;;;;5.85;3.25;;;;;;;;;;8311207;28;20025;-74
2023/04/20 16:10:31;;;;;;;4.53;3.47;;;;;;;;;;8306648;28;20086;-74
2023/04/20 16:14:31;;;;;;;5.53;3.20;;;;;;;;;;8299715;28;20033;-74
2023/04/20 16:18:31;;;;;;;4.10;3.40;;;;;;;;;;8285703;28;20034;-74
2023/04/20 16:22:32;;;;;;;3.40;3.10;;;;;;;;;;8297166;28;20257;-74
2023/04/20 16:26:32;;;;;;;3.38;3.08;;;;;;;;;;8311110;28;20026;-73
2023/04/20 16:30:33;;;;;;;7.28;3.30;;;;;;;;;;8313451;28;20048;-74
2023/04/20 16:34:33;;;;;;;4.05;3.00;;;;;;;;;;8344028;28;20058;-74
2023/04/20 16:38:33;;;;;;;5.00;2.70;;;;;;;;;;8349565;28;20013;-74
2023/04/20 16:42:34;;;;;;;3.10;2.80;;;;;;;;;;8339954;28;20035;-74
2023/04/20 16:46:34;;;;;;;3.47;2.78;;;;;;;;;;8330443;28;20053;-76
2023/04/20 16:50:35;;;;;;;3.03;2.67;;;;;;;;;;8315556;28;20032;-74
2023/04/20 16:54:36;;;;;;;3.50;2.83;;;;;;;;;;8314733;28;20037;-74
2023/04/20 16:58:36;;;;;;;2.83;2.63;;;;;;;;;;8318697;28;20010;-74
2023/04/20 17:02:37;;;;;;;3.60;2.78;;;;;;;;;;8318624;28;20022;-75
2023/04/20 17:06:37;;;;;;;3.28;2.97;;;;;;;;;;8318777;28;20038;-75
2023/04/20 17:10:43;;;;;;;4.27;3.10;;;;;;;;;;8319234;28;20014;-75
2023/04/20 17:14:44;;;;;;;3.40;3.08;;;;;;;;;;8302431;28;20334;-74
2023/04/20 17:18:48;;;;;;;4.97;3.05;;;;;;;;;;8284284;28;20030;-74
2023/04/20 17:22:48;;;;;;;3.20;2.78;;;;;;;;;;8283615;28;20036;-75
2023/04/20 17:26:48;;;;;;;3.60;2.60;;;;;;;;;;8308844;28;20010;-75
2023/04/20 17:30:50;;;;;;;4.00;2.85;;;;;;;;;;8285618;28;20069;-75
2023/04/20 17:34:52;;;;;;;3.60;3.00;;;;;;;;;;8260563;28;20077;-75
2023/04/20 17:38:52;;;;;;;4.93;2.70;;;;;;;;;;8275891;28;20037;-74
2023/04/20 17:42:52;;;;;;;3.20;2.80;;;;;;;;;;8307368;28;20026;-75
2023/04/20 17:46:53;;;;;;;4.50;3.00;;;;;;;;;;8272322;28;20113;-75
2023/04/20 17:50:53;;;;;;;3.92;3.08;;;;;;;;;;8307513;28;20287;-74
2023/04/20 17:54:54;;;;;;;5.03;2.97;;;;;;;;;;8297091;28;20623;-74
2023/04/20 17:58:54;;;;;;;3.70;3.40;;;;;;;;;;8286624;28;20018;-75
2023/04/20 18:02:54;;;;;;;5.75;3.33;;;;;;;;;;8264368;28;20041;-74
2023/04/20 18:06:54;;;;;;;4.47;3.88;;;;;;;;;;8256012;28;20044;-75
2023/04/20 18:10:55;;;;;;;4.40;4.00;;;;;;;;;;8252481;28;20116;-74
2023/04/20 18:14:55;;;;;;;4.30;3.90;;;;;;;;;;8256193;28;20052;-74
2023/04/20 18:18:55;;;;;;;5.13;4.13;;;;;;;;;;8276761;28;21072;-75
2023/04/20 18:22:55;;;;;;;6.38;3.92;;;;;;;;;;8257321;28;20025;-74
2023/04/20 18:26:56;;;;;;;4.72;4.22;;;;;;;;;;8274349;28;20519;-74
2023/04/20 18:30:56;;;;;;;6.30;4.68;;;;;;;;;;8335058;28;20048;-74
2023/04/20 18:34:58;;;;;;;4.85;4.00;;;;;;;;;;8328251;28;20021;-74
2023/04/20 18:38:58;;;;;;;4.10;3.63;;;;;;;;;;8326177;28;20029;-73
2023/04/20 18:42:58;;;;;;;4.35;3.75;;;;;;;;;;8319540;28;20026;-74
2023/04/20 18:46:58;;;;;;;4.68;3.83;;;;;;;;;;8322970;28;20106;-74
2023/04/20 18:51:00;;;;;;;5.05;4.55;;;;;;;;;;8317896;28;20018;-74
2023/04/20 18:55:00;;;;;;;5.30;4.30;;;;;;;;;;8300578;28;20018;-74
2023/04/20 18:59:02;;;;;;;5.30;4.20;;;;;;;;;;8319674;28;20053;-74
2023/04/20 19:03:03;;;;;;;6.53;4.97;;;;;;;;;;8311407;28;20399;-74
2023/04/20 19:07:03;;;;;;;5.20;4.70;;;;;;;;;;8352108;28;20044;-74
2023/04/20 19:11:03;;;;;;;6.78;5.15;;;;;;;;;;8335274;28;20025;-74
2023/04/20 19:15:04;;;;;;;6.07;4.93;;;;;;;;;;8329279;28;20040;-74
2023/04/20 19:19:04;;;;;;;8.15;5.55;;;;;;;;;;8284737;28;20036;-74
2023/04/20 19:23:05;;;;;;;6.00;5.40;;;;;;;;;;8283489;28;20029;-74
2023/04/20 19:27:05;;;;;;;7.90;5.57;;;;;;;;;;8280306;28;20534;-74
2023/04/20 19:31:07;;;;;;;11.65;5.88;;;;;;;;;;8282306;28;20029;-74
2023/04/20 19:35:07;;;;;;;7.82;6.03;;;;;;;;;;8281436;28;21375;-74
2023/04/20 19:39:08;;;;;;;9.52;6.30;;;;;;;;;;8279231;28;20068;-74
2023/04/20 19:43:08;;;;;;;7.53;5.57;;;;;;;;;;8287039;28;20040;-74
2023/04/20 19:47:08;;;;;;;8.23;5.80;;;;;;;;;;8285278;28;20083;-74
2023/04/20 19:51:10;;;;;;;9.80;6.70;;;;;;;;;;8284039;28;20021;-74
2023/04/20 19:55:11;;;;;;;6.80;5.93;;;;;;;;;;8289307;28;20017;-74
2023/04/20 19:59:11;;;;;;;6.65;5.93;;;;;;;;;;8295105;28;20032;-74
2023/04/20 20:03:14;;;;;;;7.75;6.38;;;;;;;;;;8295424;28;20072;-73
2023/04/20 20:07:16;;;;;;;6.30;5.70;;;;;;;;;;8302618;28;20132;-73
2023/04/20 20:11:16;;;;;;;7.75;6.30;;;;;;;;;;8296599;28;20026;-73
2023/04/20 20:15:16;;;;;;;6.50;5.80;;;;;;;;;;8299813;28;20089;-73
2023/04/20 20:19:16;;;;;;;8.18;6.28;;;;;;;;;;8296241;28;20518;-73
2023/04/20 20:23:17;;;;;;;7.70;6.90;;;;;;;;;;8295433;28;20056;-73
2023/04/20 20:27:17;;;;;;;7.18;6.47;;;;;;;;;;8285275;28;20087;-73
2023/04/20 20:31:17;;;;;;;8.35;6.65;;;;;;;;;;8299068;28;20036;-73
2023/04/20 20:35:17;;;;;;;7.10;6.40;;;;;;;;;;8307350;28;20026;-73
2023/04/20 20:39:18;;;;;;;7.28;6.57;;;;;;;;;;8303211;28;20272;-73
2023/04/20 20:43:19;;;;;;;8.07;7.28;;;;;;;;;;8304096;28;20532;-73
2023/04/20 20:47:19;;;;;;;8.50;6.88;;;;;;;;;;8293562;28;20038;-73
2023/04/20 20:51:20;;;;;;;8.18;6.78;;;;;;;;;;8285715;28;20077;-73
2023/04/20 20:55:21;;;;;;;7.97;6.38;;;;;;;;;;8284757;28;20025;-74
2023/04/20 20:59:21;;;;;;;7.75;6.95;;;;;;;;;;8283757;28;20039;-74
2023/04/20 21:03:21;;;;;;;8.15;7.13;;;;;;;;;;8291987;28;20498;-74
2023/04/20 21:07:21;;;;;;;7.53;6.63;;;;;;;;;;8296444;28;20040;-74
2023/04/20 21:11:21;;;;;;;7.53;6.72;;;;;;;;;;8298487;28;20109;-74
2023/04/20 21:15:22;;;;;;;8.05;5.85;;;;;;;;;;8295141;28;20118;-73
2023/04/20 21:19:22;;;;;;;6.53;5.88;;;;;;;;;;8299633;28;20025;-73
2023/04/20 21:23:22;;;;;;;6.75;6.13;;;;;;;;;;8296956;28;20032;-73
2023/04/20 21:27:23;;;;;;;6.93;6.22;;;;;;;;;;8291269;28;20025;-73
2023/04/20 21:31:23;;;;;;;7.43;6.35;;;;;;;;;;8297103;28;20844;-73
2023/04/20 21:35:23;;;;;;;6.47;5.75;;;;;;;;;;8295546;28;20018;-73
2023/04/20 21:39:23;;;;;;;11.98;5.53;;;;;;;;;;8298926;28;20029;-73
2023/04/20 21:43:23;;;;;;;6.40;5.50;;;;;;;;;;8294150;28;20030;-72
2023/04/20 21:47:24;;;;;;;7.68;6.32;;;;;;;;;;8296502;28;20048;-73
2023/04/20 21:51:24;;;;;;;7.57;6.28;;;;;;;;;;8295521;28;20048;-73
2023/04/20 21:55:24;;;;;;;7.47;6.07;;;;;;;;;;8297214;28;20823;-73
2023/04/20 21:59:24;;;;;;;7.97;6.20;;;;;;;;;;8291924;28;20033;-73
2023/04/20 22:03:25;;;;;;;8.07;6.53;;;;;;;;;;8300513;28;20284;-73
2023/04/20 22:07:26;;;;;;;6.15;5.53;;;;;;;;;;8297146;28;20061;-72
2023/04/20 22:11:26;;;;;;;8.38;6.38;;;;;;;;;;8298863;28;20054;-72
2023/04/20 22:15:27;;;;;;;6.90;6.20;;;;;;;;;;8298248;28;20030;-72
2023/04/20 22:19:27;;;;;;;8.00;6.65;;;;;;;;;;8298587;28;20128;-73
2023/04/20 22:23:28;;;;;;;7.50;6.30;;;;;;;;;;8292357;28;20017;-72
2023/04/20 22:27:28;;;;;;;8.07;7.20;;;;;;;;;;8293451;28;20075;-73
2023/04/20 22:31:29;;;;;;;10.05;7.20;;;;;;;;;;8298475;28;20138;-73
2023/04/20 22:35:29;;;;;;;10.88;8.27;;;;;;;;;;8297526;28;20037;-73
2023/04/20 22:39:29;;;;;;;8.30;7.32;;;;;;;;;;8311066;28;22028;-73
2023/04/20 22:43:29;;;;;;;8.20;7.40;;;;;;;;;;8291885;28;20777;-74
2023/04/20 22:47:29;;;;;;;8.60;7.78;;;;;;;;;;8297264;28;20409;-73
2023/04/20 22:51:30;;;;;;;12.63;8.95;;;;;;;;;;8291198;28;20025;-73
2023/04/20 22:55:30;;;;;;;9.13;8.18;;;;;;;;;;8293658;28;20032;-73
2023/04/20 22:59:31;;;;;;;11.45;9.02;;;;;;;;;;8295600;28;20025;-72
2023/04/20 23:03:31;;;;;;;11.43;10.20;;;;;;;;;;8296997;28;20506;-72
2023/04/20 23:07:32;;;;;;;9.93;8.90;;;;;;;;;;8292541;28;22007;-72
2023/04/20 23:11:37;;;;;;;10.10;8.88;;;;;;;;;;8292006;28;20682;-72
2023/04/20 23:15:37;;;;;;;11.00;9.77;;;;;;;;;;8302640;28;20037;-72
2023/04/20 23:19:39;;;;;;;11.82;10.15;;;;;;;;;;8300669;28;21021;-72
2023/04/20 23:23:39;;;;;;;10.55;9.43;;;;;;;;;;8303777;28;20113;-72
2023/04/20 23:27:39;;;;;;;14.30;10.43;;;;;;;;;;8297979;28;20041;-72
2023/04/20 23:31:45;;;;;;;12.82;10.73;;;;;;;;;;8300303;28;20112;-72
2023/04/20 23:35:46;;;;;;;17.65;10.30;;;;;;;;;;8303297;28;20033;-72
2023/04/20 23:39:46;;;;;;;12.23;10.63;;;;;;;;;;8300910;28;20036;-72
2023/04/20 23:43:46;;;;;;;18.27;11.77;;;;;;;;;;8299947;28;20059;-72
2023/04/20 23:47:46;;;;;;;13.95;11.68;;;;;;;;;;8298946;28;20029;-72
2023/04/20 23:51:46;;;;;;;20.45;11.43;;;;;;;;;;8305233;28;20049;-72
2023/04/20 23:55:54;;;;;;;24.67;12.40;;;;;;;;;;8300665;28;20025;-72
2023/04/20 23:59:54;;;;;;;14.38;11.43;;;;;;;;;;8307744;28;20740;-73
